sensor_id;sensor_type;location;lat;lon;timestamp;temperature;humidity
27940;DHT22;15275;51.716;14.324;2023-04-06T00:02:02;4.50;77.70
27940;DHT22;15275;51.716;14.324;2023-04-06T00:04:28;4.50;77.80
27940;DHT22;15275;51.716;14.324;2023-04-06T00:06:54;4.50;77.80
27940;DHT22;15275;51.716;14.324;2023-04-06T00:09:20;4.50;77.80
27940;DHT22;15275;51.716;14.324;2023-04-06T00:11:46;4.60;77.90
27940;DHT22;15275;51.716;14.324;2023-04-06T00:14:12;4.60;77.90
27940;DHT22;15275;51.716;14.324;2023-04-06T00:16:39;4.60;77.90
27940;DHT22;15275;51.716;14.324;2023-04-06T00:19:05;4.60;77.90
27940;DHT22;15275;51.716;14.324;2023-04-06T00:21:30;4.60;77.90
27940;DHT22;15275;51.716;14.324;2023-04-06T00:23:57;4.60;77.90
27940;DHT22;15275;51.716;14.324;2023-04-06T00:26:23;4.60;78.00
27940;DHT22;15275;51.716;14.324;2023-04-06T00:28:49;4.60;78.00
27940;DHT22;15275;51.716;14.324;2023-04-06T00:31:17;4.60;78.10
27940;DHT22;15275;51.716;14.324;2023-04-06T00:33:43;4.60;78.10
27940;DHT22;15275;51.716;14.324;2023-04-06T00:36:09;4.60;78.10
27940;DHT22;15275;51.716;14.324;2023-04-06T00:38:35;4.60;78.10
27940;DHT22;15275;51.716;14.324;2023-04-06T00:41:02;4.60;78.00
27940;DHT22;15275;51.716;14.324;2023-04-06T00:43:29;4.60;77.90
27940;DHT22;15275;51.716;14.324;2023-04-06T00:45:55;4.70;77.90
27940;DHT22;15275;51.716;14.324;2023-04-06T00:48:21;4.70;77.90
27940;DHT22;15275;51.716;14.324;2023-04-06T00:50:47;4.70;78.10
27940;DHT22;15275;51.716;14.324;2023-04-06T00:53:13;4.70;78.20
27940;DHT22;15275;51.716;14.324;2023-04-06T00:55:39;4.70;78.20
27940;DHT22;15275;51.716;14.324;2023-04-06T00:58:05;4.70;78.10
27940;DHT22;15275;51.716;14.324;2023-04-06T01:00:32;4.70;78.10
27940;DHT22;15275;51.716;14.324;2023-04-06T01:02:58;4.70;77.90
27940;DHT22;15275;51.716;14.324;2023-04-06T01:05:24;4.70;77.90
27940;DHT22;15275;51.716;14.324;2023-04-06T01:07:50;4.70;78.10
27940;DHT22;15275;51.716;14.324;2023-04-06T01:10:27;4.70;78.20
27940;DHT22;15275;51.716;14.324;2023-04-06T01:12:53;4.70;78.30
27940;DHT22;15275;51.716;14.324;2023-04-06T01:15:20;4.70;78.30
27940;DHT22;15275;51.716;14.324;2023-04-06T01:17:47;4.70;78.50
27940;DHT22;15275;51.716;14.324;2023-04-06T01:20:13;4.70;78.40
27940;DHT22;15275;51.716;14.324;2023-04-06T01:22:39;4.80;78.40
27940;DHT22;15275;51.716;14.324;2023-04-06T01:25:06;4.80;78.40
27940;DHT22;15275;51.716;14.324;2023-04-06T01:27:33;4.80;78.50
27940;DHT22;15275;51.716;14.324;2023-04-06T01:29:59;4.80;78.50
27940;DHT22;15275;51.716;14.324;2023-04-06T01:32:25;4.80;78.50
27940;DHT22;15275;51.716;14.324;2023-04-06T01:34:51;4.80;78.60
27940;DHT22;15275;51.716;14.324;2023-04-06T01:37:17;4.80;78.70
27940;DHT22;15275;51.716;14.324;2023-04-06T01:39:43;4.80;78.80
27940;DHT22;15275;51.716;14.324;2023-04-06T01:42:10;4.90;78.70
27940;DHT22;15275;51.716;14.324;2023-04-06T01:44:36;4.90;78.60
27940;DHT22;15275;51.716;14.324;2023-04-06T01:47:02;4.90;78.50
27940;DHT22;15275;51.716;14.324;2023-04-06T01:49:28;4.90;78.40
27940;DHT22;15275;51.716;14.324;2023-04-06T01:51:54;4.90;78.40
27940;DHT22;15275;51.716;14.324;2023-04-06T01:54:21;4.90;78.50
27940;DHT22;15275;51.716;14.324;2023-04-06T01:56:47;4.90;78.50
27940;DHT22;15275;51.716;14.324;2023-04-06T01:59:15;5.00;78.60
27940;DHT22;15275;51.716;14.324;2023-04-06T02:01:41;5.00;78.60
27940;DHT22;15275;51.716;14.324;2023-04-06T02:04:07;5.00;78.50
27940;DHT22;15275;51.716;14.324;2023-04-06T02:06:33;5.00;78.40
27940;DHT22;15275;51.716;14.324;2023-04-06T02:08:59;5.00;78.40
27940;DHT22;15275;51.716;14.324;2023-04-06T02:11:25;5.00;78.40
27940;DHT22;15275;51.716;14.324;2023-04-06T02:13:51;5.00;78.50
27940;DHT22;15275;51.716;14.324;2023-04-06T02:16:17;5.00;78.50
27940;DHT22;15275;51.716;14.324;2023-04-06T02:18:43;5.00;78.40
27940;DHT22;15275;51.716;14.324;2023-04-06T02:21:08;5.00;78.40
27940;DHT22;15275;51.716;14.324;2023-04-06T02:23:34;5.00;78.40
27940;DHT22;15275;51.716;14.324;2023-04-06T02:26:00;5.00;78.40
27940;DHT22;15275;51.716;14.324;2023-04-06T02:28:26;5.00;78.30
27940;DHT22;15275;51.716;14.324;2023-04-06T02:30:52;5.00;78.30
27940;DHT22;15275;51.716;14.324;2023-04-06T02:33:18;5.00;78.30
27940;DHT22;15275;51.716;14.324;2023-04-06T02:35:44;5.00;78.30
27940;DHT22;15275;51.716;14.324;2023-04-06T02:38:11;5.00;78.40
27940;DHT22;15275;51.716;14.324;2023-04-06T02:40:37;5.00;78.40
27940;DHT22;15275;51.716;14.324;2023-04-06T02:43:03;5.00;78.40
27940;DHT22;15275;51.716;14.324;2023-04-06T02:45:29;5.00;78.40
27940;DHT22;15275;51.716;14.324;2023-04-06T02:47:55;5.00;78.40
27940;DHT22;15275;51.716;14.324;2023-04-06T02:50:20;5.00;78.30
27940;DHT22;15275;51.716;14.324;2023-04-06T02:52:46;5.00;78.30
27940;DHT22;15275;51.716;14.324;2023-04-06T02:55:12;5.00;78.30
27940;DHT22;15275;51.716;14.324;2023-04-06T02:57:38;5.00;78.30
27940;DHT22;15275;51.716;14.324;2023-04-06T03:00:05;5.00;78.20
27940;DHT22;15275;51.716;14.324;2023-04-06T03:02:32;5.00;78.20
27940;DHT22;15275;51.716;14.324;2023-04-06T03:04:58;4.90;78.10
27940;DHT22;15275;51.716;14.324;2023-04-06T03:07:23;4.90;78.10
27940;DHT22;15275;51.716;14.324;2023-04-06T03:09:49;4.90;78.20
27940;DHT22;15275;51.716;14.324;2023-04-06T03:12:15;4.90;78.20
27940;DHT22;15275;51.716;14.324;2023-04-06T03:14:41;4.90;78.20
27940;DHT22;15275;51.716;14.324;2023-04-06T03:17:07;4.90;78.20
27940;DHT22;15275;51.716;14.324;2023-04-06T03:19:33;4.90;78.30
27940;DHT22;15275;51.716;14.324;2023-04-06T03:21:59;4.80;78.20
27940;DHT22;15275;51.716;14.324;2023-04-06T03:24:25;4.80;78.20
27940;DHT22;15275;51.716;14.324;2023-04-06T03:26:51;4.80;78.30
27940;DHT22;15275;51.716;14.324;2023-04-06T03:29:17;4.80;78.20
27940;DHT22;15275;51.716;14.324;2023-04-06T03:31:43;4.70;78.20
27940;DHT22;15275;51.716;14.324;2023-04-06T03:34:09;4.70;78.20
27940;DHT22;15275;51.716;14.324;2023-04-06T03:36:35;4.70;78.10
27940;DHT22;15275;51.716;14.324;2023-04-06T03:39:01;4.70;78.10
27940;DHT22;15275;51.716;14.324;2023-04-06T03:41:27;4.60;78.10
27940;DHT22;15275;51.716;14.324;2023-04-06T03:43:53;4.60;78.10
27940;DHT22;15275;51.716;14.324;2023-04-06T03:46:19;4.60;78.10
27940;DHT22;15275;51.716;14.324;2023-04-06T03:48:48;4.60;78.00
27940;DHT22;15275;51.716;14.324;2023-04-06T03:51:14;4.50;78.00
27940;DHT22;15275;51.716;14.324;2023-04-06T03:53:40;4.50;78.00
27940;DHT22;15275;51.716;14.324;2023-04-06T03:56:06;4.50;77.90
27940;DHT22;15275;51.716;14.324;2023-04-06T03:58:32;4.50;77.90
27940;DHT22;15275;51.716;14.324;2023-04-06T04:00:58;4.40;77.80
27940;DHT22;15275;51.716;14.324;2023-04-06T04:03:24;4.40;77.90
27940;DHT22;15275;51.716;14.324;2023-04-06T04:05:52;4.30;77.90
27940;DHT22;15275;51.716;14.324;2023-04-06T04:08:18;4.30;77.90
27940;DHT22;15275;51.716;14.324;2023-04-06T04:10:44;4.30;77.90
27940;DHT22;15275;51.716;14.324;2023-04-06T04:13:10;4.20;78.10
27940;DHT22;15275;51.716;14.324;2023-04-06T04:15:36;4.20;78.20
27940;DHT22;15275;51.716;14.324;2023-04-06T04:18:02;4.20;78.30
27940;DHT22;15275;51.716;14.324;2023-04-06T04:20:28;4.10;78.40
27940;DHT22;15275;51.716;14.324;2023-04-06T04:22:54;4.10;78.40
27940;DHT22;15275;51.716;14.324;2023-04-06T04:25:20;4.10;78.30
27940;DHT22;15275;51.716;14.324;2023-04-06T04:27:46;4.10;78.40
27940;DHT22;15275;51.716;14.324;2023-04-06T04:30:12;4.10;78.50
27940;DHT22;15275;51.716;14.324;2023-04-06T04:32:38;4.10;78.70
27940;DHT22;15275;51.716;14.324;2023-04-06T04:35:04;4.10;78.80
27940;DHT22;15275;51.716;14.324;2023-04-06T04:37:31;4.10;78.90
27940;DHT22;15275;51.716;14.324;2023-04-06T04:39:57;4.10;78.90
27940;DHT22;15275;51.716;14.324;2023-04-06T04:42:23;4.10;78.90
27940;DHT22;15275;51.716;14.324;2023-04-06T04:44:49;4.10;78.80
27940;DHT22;15275;51.716;14.324;2023-04-06T04:47:14;4.10;78.90
27940;DHT22;15275;51.716;14.324;2023-04-06T04:49:40;4.10;78.90
27940;DHT22;15275;51.716;14.324;2023-04-06T04:52:06;4.10;79.00
27940;DHT22;15275;51.716;14.324;2023-04-06T04:54:32;4.10;79.10
27940;DHT22;15275;51.716;14.324;2023-04-06T04:56:58;4.10;79.10
27940;DHT22;15275;51.716;14.324;2023-04-06T04:59:24;4.10;79.20
27940;DHT22;15275;51.716;14.324;2023-04-06T05:01:50;4.10;79.30
27940;DHT22;15275;51.716;14.324;2023-04-06T05:04:16;4.20;79.40
27940;DHT22;15275;51.716;14.324;2023-04-06T05:06:42;4.20;79.40
27940;DHT22;15275;51.716;14.324;2023-04-06T05:09:13;4.20;79.40
27940;DHT22;15275;51.716;14.324;2023-04-06T05:11:43;4.30;79.50
27940;DHT22;15275;51.716;14.324;2023-04-06T05:14:09;4.30;79.50
27940;DHT22;15275;51.716;14.324;2023-04-06T05:16:35;4.40;79.60
27940;DHT22;15275;51.716;14.324;2023-04-06T05:19:01;4.40;79.60
27940;DHT22;15275;51.716;14.324;2023-04-06T05:21:27;4.50;79.60
27940;DHT22;15275;51.716;14.324;2023-04-06T05:23:53;4.50;79.60
27940;DHT22;15275;51.716;14.324;2023-04-06T05:26:19;4.60;79.50
27940;DHT22;15275;51.716;14.324;2023-04-06T05:28:45;4.60;79.30
27940;DHT22;15275;51.716;14.324;2023-04-06T05:31:11;4.70;79.30
27940;DHT22;15275;51.716;14.324;2023-04-06T05:33:37;4.70;79.20
27940;DHT22;15275;51.716;14.324;2023-04-06T05:36:03;4.70;79.30
27940;DHT22;15275;51.716;14.324;2023-04-06T05:38:31;4.80;79.30
27940;DHT22;15275;51.716;14.324;2023-04-06T05:40:58;4.80;79.30
27940;DHT22;15275;51.716;14.324;2023-04-06T05:43:24;4.90;79.20
27940;DHT22;15275;51.716;14.324;2023-04-06T05:45:50;4.90;79.20
27940;DHT22;15275;51.716;14.324;2023-04-06T05:48:16;5.00;79.10
27940;DHT22;15275;51.716;14.324;2023-04-06T05:50:42;5.00;79.10
27940;DHT22;15275;51.716;14.324;2023-04-06T05:53:08;5.00;79.20
27940;DHT22;15275;51.716;14.324;2023-04-06T05:55:34;5.10;79.20
27940;DHT22;15275;51.716;14.324;2023-04-06T05:58:00;5.10;79.10
27940;DHT22;15275;51.716;14.324;2023-04-06T06:00:26;5.20;78.80
27940;DHT22;15275;51.716;14.324;2023-04-06T06:02:52;5.20;78.80
27940;DHT22;15275;51.716;14.324;2023-04-06T06:05:18;5.20;78.70
27940;DHT22;15275;51.716;14.324;2023-04-06T06:07:44;5.20;78.90
27940;DHT22;15275;51.716;14.324;2023-04-06T06:10:10;5.30;79.00
27940;DHT22;15275;51.716;14.324;2023-04-06T06:12:36;5.30;79.20
27940;DHT22;15275;51.716;14.324;2023-04-06T06:15:02;5.40;79.30
27940;DHT22;15275;51.716;14.324;2023-04-06T06:17:28;5.40;79.60
27940;DHT22;15275;51.716;14.324;2023-04-06T06:19:54;5.50;80.00
27940;DHT22;15275;51.716;14.324;2023-04-06T06:22:20;5.60;80.10
27940;DHT22;15275;51.716;14.324;2023-04-06T06:24:46;5.70;80.50
27940;DHT22;15275;51.716;14.324;2023-04-06T06:27:12;5.90;80.50
27940;DHT22;15275;51.716;14.324;2023-04-06T06:29:38;6.00;80.40
27940;DHT22;15275;51.716;14.324;2023-04-06T06:32:04;6.10;80.50
27940;DHT22;15275;51.716;14.324;2023-04-06T06:34:30;6.30;80.30
27940;DHT22;15275;51.716;14.324;2023-04-06T06:36:56;6.40;80.00
27940;DHT22;15275;51.716;14.324;2023-04-06T06:39:22;6.60;79.90
27940;DHT22;15275;51.716;14.324;2023-04-06T06:41:48;6.70;79.90
27940;DHT22;15275;51.716;14.324;2023-04-06T06:44:14;6.90;79.90
27940;DHT22;15275;51.716;14.324;2023-04-06T06:46:42;7.00;79.50
27940;DHT22;15275;51.716;14.324;2023-04-06T06:49:08;7.20;79.50
27940;DHT22;15275;51.716;14.324;2023-04-06T06:51:34;7.30;79.10
27940;DHT22;15275;51.716;14.324;2023-04-06T06:54:00;7.50;78.70
27940;DHT22;15275;51.716;14.324;2023-04-06T06:56:26;7.60;78.60
27940;DHT22;15275;51.716;14.324;2023-04-06T06:58:53;7.70;78.10
27940;DHT22;15275;51.716;14.324;2023-04-06T07:01:19;7.80;78.20
27940;DHT22;15275;51.716;14.324;2023-04-06T07:03:45;7.90;78.20
27940;DHT22;15275;51.716;14.324;2023-04-06T07:06:11;8.10;78.00
27940;DHT22;15275;51.716;14.324;2023-04-06T07:08:37;8.20;78.00
27940;DHT22;15275;51.716;14.324;2023-04-06T07:11:03;8.30;77.90
27940;DHT22;15275;51.716;14.324;2023-04-06T07:13:29;8.50;78.10
27940;DHT22;15275;51.716;14.324;2023-04-06T07:15:55;8.60;77.90
27940;DHT22;15275;51.716;14.324;2023-04-06T07:18:22;8.80;78.00
27940;DHT22;15275;51.716;14.324;2023-04-06T07:20:48;8.90;77.30
27940;DHT22;15275;51.716;14.324;2023-04-06T07:23:14;9.10;76.90
27940;DHT22;15275;51.716;14.324;2023-04-06T07:25:40;9.20;76.30
27940;DHT22;15275;51.716;14.324;2023-04-06T07:28:07;9.30;76.20
27940;DHT22;15275;51.716;14.324;2023-04-06T07:30:33;9.50;76.00
27940;DHT22;15275;51.716;14.324;2023-04-06T07:32:59;9.60;75.50
27940;DHT22;15275;51.716;14.324;2023-04-06T07:35:26;9.70;75.50
27940;DHT22;15275;51.716;14.324;2023-04-06T07:37:53;9.80;74.50
27940;DHT22;15275;51.716;14.324;2023-04-06T07:40:19;9.90;74.80
27940;DHT22;15275;51.716;14.324;2023-04-06T07:42:46;10.00;75.10
27940;DHT22;15275;51.716;14.324;2023-04-06T07:45:12;10.10;74.50
27940;DHT22;15275;51.716;14.324;2023-04-06T07:47:39;10.20;74.00
27940;DHT22;15275;51.716;14.324;2023-04-06T07:50:05;10.20;73.70
27940;DHT22;15275;51.716;14.324;2023-04-06T07:52:31;10.30;73.20
27940;DHT22;15275;51.716;14.324;2023-04-06T07:54:58;10.40;73.20
27940;DHT22;15275;51.716;14.324;2023-04-06T07:57:24;10.50;72.50
27940;DHT22;15275;51.716;14.324;2023-04-06T07:59:50;10.50;72.30
27940;DHT22;15275;51.716;14.324;2023-04-06T08:02:16;10.60;72.30
27940;DHT22;15275;51.716;14.324;2023-04-06T08:04:43;10.60;72.20
27940;DHT22;15275;51.716;14.324;2023-04-06T08:07:09;10.70;71.70
27940;DHT22;15275;51.716;14.324;2023-04-06T08:09:35;10.70;71.20
27940;DHT22;15275;51.716;14.324;2023-04-06T08:12:03;10.80;71.60
27940;DHT22;15275;51.716;14.324;2023-04-06T08:14:29;10.80;71.00
27940;DHT22;15275;51.716;14.324;2023-04-06T08:16:55;10.80;71.20
27940;DHT22;15275;51.716;14.324;2023-04-06T08:19:21;10.90;71.50
27940;DHT22;15275;51.716;14.324;2023-04-06T08:21:47;10.90;71.70
27940;DHT22;15275;51.716;14.324;2023-04-06T08:24:13;11.00;71.30
27940;DHT22;15275;51.716;14.324;2023-04-06T08:26:40;11.10;70.60
27940;DHT22;15275;51.716;14.324;2023-04-06T08:29:06;11.20;70.40
27940;DHT22;15275;51.716;14.324;2023-04-06T08:31:34;11.20;70.80
27940;DHT22;15275;51.716;14.324;2023-04-06T08:34:00;11.30;70.60
27940;DHT22;15275;51.716;14.324;2023-04-06T08:36:27;11.40;69.50
27940;DHT22;15275;51.716;14.324;2023-04-06T08:38:53;11.50;68.70
27940;DHT22;15275;51.716;14.324;2023-04-06T08:41:19;11.50;68.90
27940;DHT22;15275;51.716;14.324;2023-04-06T08:44:00;11.50;68.80
27940;DHT22;15275;51.716;14.324;2023-04-06T08:46:28;11.60;67.40
27940;DHT22;15275;51.716;14.324;2023-04-06T08:49:00;11.60;68.70
27940;DHT22;15275;51.716;14.324;2023-04-06T08:51:28;11.70;68.40
27940;DHT22;15275;51.716;14.324;2023-04-06T08:53:57;11.70;67.70
27940;DHT22;15275;51.716;14.324;2023-04-06T08:56:25;11.80;68.20
27940;DHT22;15275;51.716;14.324;2023-04-06T08:58:55;11.80;68.20
27940;DHT22;15275;51.716;14.324;2023-04-06T09:01:25;11.90;67.80
27940;DHT22;15275;51.716;14.324;2023-04-06T09:03:56;11.90;67.60
27940;DHT22;15275;51.716;14.324;2023-04-06T09:06:24;12.00;66.90
27940;DHT22;15275;51.716;14.324;2023-04-06T09:08:52;12.10;65.90
27940;DHT22;15275;51.716;14.324;2023-04-06T09:11:18;12.20;64.70
27940;DHT22;15275;51.716;14.324;2023-04-06T09:13:52;12.20;64.90
27940;DHT22;15275;51.716;14.324;2023-04-06T09:16:22;12.20;64.40
27940;DHT22;15275;51.716;14.324;2023-04-06T09:18:49;12.20;65.30
27940;DHT22;15275;51.716;14.324;2023-04-06T09:21:19;12.30;64.20
27940;DHT22;15275;51.716;14.324;2023-04-06T09:23:45;12.30;64.10
27940;DHT22;15275;51.716;14.324;2023-04-06T09:26:17;12.30;64.60
27940;DHT22;15275;51.716;14.324;2023-04-06T09:28:54;12.30;64.70
27940;DHT22;15275;51.716;14.324;2023-04-06T09:31:29;12.40;65.10
27940;DHT22;15275;51.716;14.324;2023-04-06T09:33:59;12.50;65.90
27940;DHT22;15275;51.716;14.324;2023-04-06T09:36:33;12.50;64.60
27940;DHT22;15275;51.716;14.324;2023-04-06T09:39:03;12.60;63.90
27940;DHT22;15275;51.716;14.324;2023-04-06T09:41:31;12.60;65.50
27940;DHT22;15275;51.716;14.324;2023-04-06T09:44:06;12.70;65.40
27940;DHT22;15275;51.716;14.324;2023-04-06T09:49:08;12.80;64.50
27940;DHT22;15275;51.716;14.324;2023-04-06T09:51:38;12.80;64.60
27940;DHT22;15275;51.716;14.324;2023-04-06T09:54:21;12.90;65.10
27940;DHT22;15275;51.716;14.324;2023-04-06T09:59:44;13.00;65.30
27940;DHT22;15275;51.716;14.324;2023-04-06T10:06:13;13.30;63.10
27940;DHT22;15275;51.716;14.324;2023-04-06T10:08:41;13.40;65.90
27940;DHT22;15275;51.716;14.324;2023-04-06T10:11:11;13.50;64.20
27940;DHT22;15275;51.716;14.324;2023-04-06T10:13:37;13.50;62.60
27940;DHT22;15275;51.716;14.324;2023-04-06T10:16:04;13.60;63.60
27940;DHT22;15275;51.716;14.324;2023-04-06T10:18:30;13.60;62.50
27940;DHT22;15275;51.716;14.324;2023-04-06T10:23:45;13.70;62.80
27940;DHT22;15275;51.716;14.324;2023-04-06T10:26:20;13.80;61.50
27940;DHT22;15275;51.716;14.324;2023-04-06T10:28:48;14.00;61.10
27940;DHT22;15275;51.716;14.324;2023-04-06T10:31:15;14.10;62.50
27940;DHT22;15275;51.716;14.324;2023-04-06T10:33:53;14.20;62.60
27940;DHT22;15275;51.716;14.324;2023-04-06T10:36:28;14.30;62.60
27940;DHT22;15275;51.716;14.324;2023-04-06T10:39:07;14.50;63.00
27940;DHT22;15275;51.716;14.324;2023-04-06T10:41:41;14.70;60.20
27940;DHT22;15275;51.716;14.324;2023-04-06T10:44:20;14.90;60.20
27940;DHT22;15275;51.716;14.324;2023-04-06T10:46:55;15.00;59.20
27940;DHT22;15275;51.716;14.324;2023-04-06T10:49:22;15.10;60.30
27940;DHT22;15275;51.716;14.324;2023-04-06T10:51:56;15.20;61.50
27940;DHT22;15275;51.716;14.324;2023-04-06T10:54:24;15.30;58.90
27940;DHT22;15275;51.716;14.324;2023-04-06T10:56:51;15.30;59.90
27940;DHT22;15275;51.716;14.324;2023-04-06T10:59:21;15.30;58.30
27940;DHT22;15275;51.716;14.324;2023-04-06T11:01:48;15.20;57.80
27940;DHT22;15275;51.716;14.324;2023-04-06T11:04:18;15.10;57.80
27940;DHT22;15275;51.716;14.324;2023-04-06T11:06:49;14.90;58.30
27940;DHT22;15275;51.716;14.324;2023-04-06T11:09:29;14.80;57.90
27940;DHT22;15275;51.716;14.324;2023-04-06T11:11:57;14.70;57.10
27940;DHT22;15275;51.716;14.324;2023-04-06T11:14:23;14.60;58.80
27940;DHT22;15275;51.716;14.324;2023-04-06T11:16:49;14.50;59.00
27940;DHT22;15275;51.716;14.324;2023-04-06T11:19:15;14.50;58.40
27940;DHT22;15275;51.716;14.324;2023-04-06T11:21:44;14.40;58.80
27940;DHT22;15275;51.716;14.324;2023-04-06T11:24:22;14.40;58.40
27940;DHT22;15275;51.716;14.324;2023-04-06T11:26:55;14.40;57.20
27940;DHT22;15275;51.716;14.324;2023-04-06T11:29:28;14.30;57.20
27940;DHT22;15275;51.716;14.324;2023-04-06T11:34:29;14.30;57.60
27940;DHT22;15275;51.716;14.324;2023-04-06T11:37:06;14.30;58.70
27940;DHT22;15275;51.716;14.324;2023-04-06T11:39:48;14.30;57.70
27940;DHT22;15275;51.716;14.324;2023-04-06T11:42:27;14.40;58.20
27940;DHT22;15275;51.716;14.324;2023-04-06T11:44:59;14.50;56.40
27940;DHT22;15275;51.716;14.324;2023-04-06T11:47:31;14.60;58.20
27940;DHT22;15275;51.716;14.324;2023-04-06T11:50:12;14.60;58.60
27940;DHT22;15275;51.716;14.324;2023-04-06T11:52:40;14.70;57.40
27940;DHT22;15275;51.716;14.324;2023-04-06T11:55:14;14.80;59.40
27940;DHT22;15275;51.716;14.324;2023-04-06T11:57:43;14.90;58.40
27940;DHT22;15275;51.716;14.324;2023-04-06T12:00:10;15.00;59.60
27940;DHT22;15275;51.716;14.324;2023-04-06T12:02:37;15.20;59.20
27940;DHT22;15275;51.716;14.324;2023-04-06T12:05:05;15.30;58.90
27940;DHT22;15275;51.716;14.324;2023-04-06T12:07:32;15.40;57.70
27940;DHT22;15275;51.716;14.324;2023-04-06T12:12:26;15.60;56.50
27940;DHT22;15275;51.716;14.324;2023-04-06T12:14:52;15.60;56.80
27940;DHT22;15275;51.716;14.324;2023-04-06T12:17:19;15.60;57.20
27940;DHT22;15275;51.716;14.324;2023-04-06T12:19:45;15.60;57.20
27940;DHT22;15275;51.716;14.324;2023-04-06T12:22:12;15.60;57.00
27940;DHT22;15275;51.716;14.324;2023-04-06T12:24:38;15.70;55.80
27940;DHT22;15275;51.716;14.324;2023-04-06T12:27:03;15.70;55.90
27940;DHT22;15275;51.716;14.324;2023-04-06T12:29:30;15.70;55.50
27940;DHT22;15275;51.716;14.324;2023-04-06T12:31:56;15.80;54.90
27940;DHT22;15275;51.716;14.324;2023-04-06T12:34:22;15.80;56.10
27940;DHT22;15275;51.716;14.324;2023-04-06T12:36:48;15.80;55.10
27940;DHT22;15275;51.716;14.324;2023-04-06T12:39:15;15.80;54.00
27940;DHT22;15275;51.716;14.324;2023-04-06T12:41:42;15.70;55.60
27940;DHT22;15275;51.716;14.324;2023-04-06T12:44:08;15.70;55.20
27940;DHT22;15275;51.716;14.324;2023-04-06T12:46:34;15.70;54.70
27940;DHT22;15275;51.716;14.324;2023-04-06T12:49:00;15.70;55.00
27940;DHT22;15275;51.716;14.324;2023-04-06T12:51:30;15.70;55.30
27940;DHT22;15275;51.716;14.324;2023-04-06T12:53:56;15.70;54.00
27940;DHT22;15275;51.716;14.324;2023-04-06T12:56:22;15.70;54.10
27940;DHT22;15275;51.716;14.324;2023-04-06T12:58:51;15.60;54.10
27940;DHT22;15275;51.716;14.324;2023-04-06T13:01:17;15.50;53.50
27940;DHT22;15275;51.716;14.324;2023-04-06T13:03:43;15.40;53.20
27940;DHT22;15275;51.716;14.324;2023-04-06T13:06:10;15.30;53.60
27940;DHT22;15275;51.716;14.324;2023-04-06T13:08:37;15.20;54.00
27940;DHT22;15275;51.716;14.324;2023-04-06T13:11:04;15.10;54.60
27940;DHT22;15275;51.716;14.324;2023-04-06T13:13:33;15.00;54.40
27940;DHT22;15275;51.716;14.324;2023-04-06T13:16:03;14.90;54.30
27940;DHT22;15275;51.716;14.324;2023-04-06T13:18:31;14.80;53.50
27940;DHT22;15275;51.716;14.324;2023-04-06T13:20:58;14.70;53.00
27940;DHT22;15275;51.716;14.324;2023-04-06T13:23:27;14.60;53.40
27940;DHT22;15275;51.716;14.324;2023-04-06T13:26:00;14.50;53.60
27940;DHT22;15275;51.716;14.324;2023-04-06T13:28:30;14.40;53.20
27940;DHT22;15275;51.716;14.324;2023-04-06T13:30:59;14.40;54.00
27940;DHT22;15275;51.716;14.324;2023-04-06T13:33:26;14.30;54.20
27940;DHT22;15275;51.716;14.324;2023-04-06T13:35:52;14.30;54.40
27940;DHT22;15275;51.716;14.324;2023-04-06T13:38:18;14.30;54.60
27940;DHT22;15275;51.716;14.324;2023-04-06T13:40:44;14.30;54.70
27940;DHT22;15275;51.716;14.324;2023-04-06T13:43:10;14.30;54.50
27940;DHT22;15275;51.716;14.324;2023-04-06T13:45:37;14.20;54.40
27940;DHT22;15275;51.716;14.324;2023-04-06T13:48:04;14.20;54.70
27940;DHT22;15275;51.716;14.324;2023-04-06T13:50:31;14.20;54.60
27940;DHT22;15275;51.716;14.324;2023-04-06T13:52:58;14.20;55.20
27940;DHT22;15275;51.716;14.324;2023-04-06T13:55:24;14.20;55.00
27940;DHT22;15275;51.716;14.324;2023-04-06T13:57:50;14.20;54.90
27940;DHT22;15275;51.716;14.324;2023-04-06T14:00:17;14.30;54.60
27940;DHT22;15275;51.716;14.324;2023-04-06T14:02:43;14.30;55.30
27940;DHT22;15275;51.716;14.324;2023-04-06T14:05:09;14.40;55.50
27940;DHT22;15275;51.716;14.324;2023-04-06T14:07:36;14.40;55.80
27940;DHT22;15275;51.716;14.324;2023-04-06T14:10:02;14.50;56.10
27940;DHT22;15275;51.716;14.324;2023-04-06T14:12:29;14.60;56.40
27940;DHT22;15275;51.716;14.324;2023-04-06T14:14:55;14.70;56.60
27940;DHT22;15275;51.716;14.324;2023-04-06T14:17:22;14.80;56.20
27940;DHT22;15275;51.716;14.324;2023-04-06T14:19:47;15.00;56.60
27940;DHT22;15275;51.716;14.324;2023-04-06T14:22:14;15.10;56.40
27940;DHT22;15275;51.716;14.324;2023-04-06T14:24:40;15.30;56.00
27940;DHT22;15275;51.716;14.324;2023-04-06T14:27:06;15.40;55.80
27940;DHT22;15275;51.716;14.324;2023-04-06T14:29:32;15.50;55.90
27940;DHT22;15275;51.716;14.324;2023-04-06T14:31:58;15.70;56.10
27940;DHT22;15275;51.716;14.324;2023-04-06T14:34:26;15.80;55.20
27940;DHT22;15275;51.716;14.324;2023-04-06T14:36:52;15.90;55.40
27940;DHT22;15275;51.716;14.324;2023-04-06T14:39:18;16.00;55.50
27940;DHT22;15275;51.716;14.324;2023-04-06T14:41:44;16.00;54.20
27940;DHT22;15275;51.716;14.324;2023-04-06T14:44:10;16.10;52.80
27940;DHT22;15275;51.716;14.324;2023-04-06T14:46:37;16.10;52.90
27940;DHT22;15275;51.716;14.324;2023-04-06T14:49:03;16.00;52.30
27940;DHT22;15275;51.716;14.324;2023-04-06T14:51:29;15.90;52.50
27940;DHT22;15275;51.716;14.324;2023-04-06T14:53:56;15.90;52.30
27940;DHT22;15275;51.716;14.324;2023-04-06T14:56:25;15.80;52.60
27940;DHT22;15275;51.716;14.324;2023-04-06T14:58:51;15.70;51.70
27940;DHT22;15275;51.716;14.324;2023-04-06T15:01:18;15.70;52.10
27940;DHT22;15275;51.716;14.324;2023-04-06T15:03:45;15.60;51.90
27940;DHT22;15275;51.716;14.324;2023-04-06T15:06:13;15.40;51.30
27940;DHT22;15275;51.716;14.324;2023-04-06T15:08:43;15.30;51.30
27940;DHT22;15275;51.716;14.324;2023-04-06T15:11:10;15.10;51.40
27940;DHT22;15275;51.716;14.324;2023-04-06T15:13:37;14.90;51.50
27940;DHT22;15275;51.716;14.324;2023-04-06T15:16:04;14.80;51.60
27940;DHT22;15275;51.716;14.324;2023-04-06T15:18:31;14.60;51.60
27940;DHT22;15275;51.716;14.324;2023-04-06T15:20:57;14.50;51.50
27940;DHT22;15275;51.716;14.324;2023-04-06T15:23:22;14.30;51.90
27940;DHT22;15275;51.716;14.324;2023-04-06T15:25:48;14.20;52.20
27940;DHT22;15275;51.716;14.324;2023-04-06T15:28:15;14.10;52.60
27940;DHT22;15275;51.716;14.324;2023-04-06T15:30:41;14.00;52.50
27940;DHT22;15275;51.716;14.324;2023-04-06T15:33:08;13.90;53.40
27940;DHT22;15275;51.716;14.324;2023-04-06T15:35:34;13.90;53.20
27940;DHT22;15275;51.716;14.324;2023-04-06T15:38:05;13.90;53.00
27940;DHT22;15275;51.716;14.324;2023-04-06T15:40:32;13.90;53.00